sensor_id;sensor_type;location;lat;lon;timestamp;pressure;altitude;pressure_sealevel;temperature;humidity
9521;BME280;4798;41.574;23.734;2023-03-14T00:00:06;95620.97;;;8.07;57.51
9521;BME280;4798;41.574;23.734;2023-03-14T00:02:35;95607.72;;;8.24;58.08
9521;BME280;4798;41.574;23.734;2023-03-14T00:05:04;95615.56;;;7.97;56.74
9521;BME280;4798;41.574;23.734;2023-03-14T00:07:34;95612.94;;;7.97;58.12
9521;BME280;4798;41.574;23.734;2023-03-14T00:10:03;95608.88;;;7.90;59.01
9521;BME280;4798;41.574;23.734;2023-03-14T00:12:33;95601.06;;;7.56;59.54
9521;BME280;4798;41.574;23.734;2023-03-14T00:15:02;95588.84;;;7.50;57.45
9521;BME280;4798;41.574;23.734;2023-03-14T00:17:31;95591.94;;;7.09;57.55
9521;BME280;4798;41.574;23.734;2023-03-14T00:19:59;95588.72;;;7.40;58.41
9521;BME280;4798;41.574;23.734;2023-03-14T00:22:32;95588.31;;;7.70;58.19
9521;BME280;4798;41.574;23.734;2023-03-14T00:25:00;95585.75;;;7.75;57.16
9521;BME280;4798;41.574;23.734;2023-03-14T00:27:29;95586.69;;;7.47;56.58
9521;BME280;4798;41.574;23.734;2023-03-14T00:29:58;95588.63;;;7.74;57.41
9521;BME280;4798;41.574;23.734;2023-03-14T00:32:27;95582.00;;;7.71;56.06
9521;BME280;4798;41.574;23.734;2023-03-14T00:34:55;95582.84;;;7.55;56.67
9521;BME280;4798;41.574;23.734;2023-03-14T00:37:24;95577.44;;;7.66;56.63
9521;BME280;4798;41.574;23.734;2023-03-14T00:39:52;95569.50;;;7.83;57.48
9521;BME280;4798;41.574;23.734;2023-03-14T00:42:20;95571.59;;;7.81;57.04
9521;BME280;4798;41.574;23.734;2023-03-14T00:44:48;95571.63;;;7.26;56.70
9521;BME280;4798;41.574;23.734;2023-03-14T00:47:18;95545.78;;;7.45;59.71
9521;BME280;4798;41.574;23.734;2023-03-14T00:49:46;95553.63;;;7.61;57.67
9521;BME280;4798;41.574;23.734;2023-03-14T00:52:15;95561.00;;;7.59;56.50
9521;BME280;4798;41.574;23.734;2023-03-14T00:54:43;95561.34;;;7.46;55.98
9521;BME280;4798;41.574;23.734;2023-03-14T00:57:11;95507.34;;;6.11;58.26
9521;BME280;4798;41.574;23.734;2023-03-14T00:59:40;95567.75;;;5.66;61.48
9521;BME280;4798;41.574;23.734;2023-03-14T01:02:08;95561.50;;;5.32;62.60
9521;BME280;4798;41.574;23.734;2023-03-14T01:04:38;95561.09;;;5.87;61.30
9521;BME280;4798;41.574;23.734;2023-03-14T01:07:10;95519.25;;;5.73;61.19
9521;BME280;4798;41.574;23.734;2023-03-14T01:09:38;95554.56;;;5.89;61.52
9521;BME280;4798;41.574;23.734;2023-03-14T01:12:06;95557.34;;;6.11;60.40
9521;BME280;4798;41.574;23.734;2023-03-14T01:14:35;95548.38;;;6.40;59.39
9521;BME280;4798;41.574;23.734;2023-03-14T01:17:03;95552.56;;;6.53;58.83
9521;BME280;4798;41.574;23.734;2023-03-14T01:19:32;95499.34;;;6.06;58.92
9521;BME280;4798;41.574;23.734;2023-03-14T01:22:02;95546.63;;;6.29;58.80
9521;BME280;4798;41.574;23.734;2023-03-14T01:24:30;95542.81;;;6.08;60.36
9521;BME280;4798;41.574;23.734;2023-03-14T01:26:58;95543.06;;;6.52;59.10
9521;BME280;4798;41.574;23.734;2023-03-14T01:29:27;95545.94;;;6.67;58.46
9521;BME280;4798;41.574;23.734;2023-03-14T01:31:55;95539.00;;;6.16;58.49
9521;BME280;4798;41.574;23.734;2023-03-14T01:34:23;95539.72;;;6.11;59.10
9521;BME280;4798;41.574;23.734;2023-03-14T01:36:51;95539.53;;;6.29;58.87
9521;BME280;4798;41.574;23.734;2023-03-14T01:39:21;95533.94;;;6.43;58.93
9521;BME280;4798;41.574;23.734;2023-03-14T01:41:49;95533.88;;;6.71;61.02
9521;BME280;4798;41.574;23.734;2023-03-14T01:44:18;95522.31;;;6.72;60.38
9521;BME280;4798;41.574;23.734;2023-03-14T01:46:46;95517.69;;;6.79;61.48
9521;BME280;4798;41.574;23.734;2023-03-14T01:49:21;95528.72;;;6.92;61.44
9521;BME280;4798;41.574;23.734;2023-03-14T01:51:55;95522.16;;;6.62;60.35
9521;BME280;4798;41.574;23.734;2023-03-14T01:54:29;95521.34;;;6.45;61.58
9521;BME280;4798;41.574;23.734;2023-03-14T01:57:05;95526.69;;;6.33;60.38
9521;BME280;4798;41.574;23.734;2023-03-14T01:59:35;95453.53;;;6.02;60.64
9521;BME280;4798;41.574;23.734;2023-03-14T02:02:05;95526.22;;;6.69;59.78
9521;BME280;4798;41.574;23.734;2023-03-14T02:04:35;95526.06;;;6.76;61.71
9521;BME280;4798;41.574;23.734;2023-03-14T02:07:09;95521.13;;;6.79;60.04
9521;BME280;4798;41.574;23.734;2023-03-14T02:09:41;95525.19;;;6.37;60.77
9521;BME280;4798;41.574;23.734;2023-03-14T02:12:12;95517.06;;;6.55;61.74
9521;BME280;4798;41.574;23.734;2023-03-14T02:14:42;95518.81;;;6.66;60.17
9521;BME280;4798;41.574;23.734;2023-03-14T02:17:16;95522.16;;;6.62;59.25
9521;BME280;4798;41.574;23.734;2023-03-14T02:20:03;95516.47;;;5.92;60.74
9521;BME280;4798;41.574;23.734;2023-03-14T02:22:37;95514.75;;;5.46;61.70
9521;BME280;4798;41.574;23.734;2023-03-14T02:25:08;95510.47;;;5.68;63.66
9521;BME280;4798;41.574;23.734;2023-03-14T02:27:41;95514.94;;;6.24;63.56
9521;BME280;4798;41.574;23.734;2023-03-14T02:30:13;95509.00;;;6.62;64.33
9521;BME280;4798;41.574;23.734;2023-03-14T02:32:45;95523.84;;;6.68;61.06
9521;BME280;4798;41.574;23.734;2023-03-14T02:35:17;95522.56;;;6.87;62.54
9521;BME280;4798;41.574;23.734;2023-03-14T02:37:49;95519.91;;;6.87;61.67
9521;BME280;4798;41.574;23.734;2023-03-14T02:40:20;95509.94;;;6.56;60.95
9521;BME280;4798;41.574;23.734;2023-03-14T02:42:49;95513.28;;;6.34;60.69
9521;BME280;4798;41.574;23.734;2023-03-14T02:45:48;95519.41;;;6.23;61.53
9521;BME280;4798;41.574;23.734;2023-03-14T02:48:19;95522.63;;;6.59;61.83
9521;BME280;4798;41.574;23.734;2023-03-14T02:50:50;95519.91;;;6.37;60.65
9521;BME280;4798;41.574;23.734;2023-03-14T02:53:22;95520.47;;;6.39;61.98
9521;BME280;4798;41.574;23.734;2023-03-14T02:55:51;95516.91;;;6.62;62.22
9521;BME280;4798;41.574;23.734;2023-03-14T02:58:21;95497.88;;;6.43;61.07
9521;BME280;4798;41.574;23.734;2023-03-14T03:00:50;95507.94;;;6.29;60.88
9521;BME280;4798;41.574;23.734;2023-03-14T03:03:18;95512.88;;;6.43;60.44
9521;BME280;4798;41.574;23.734;2023-03-14T03:05:48;95523.75;;;6.46;59.74
9521;BME280;4798;41.574;23.734;2023-03-14T03:08:17;95511.38;;;6.47;60.59
9521;BME280;4798;41.574;23.734;2023-03-14T03:10:46;95476.00;;;6.09;59.15
9521;BME280;4798;41.574;23.734;2023-03-14T03:13:15;95501.22;;;6.22;59.34
9521;BME280;4798;41.574;23.734;2023-03-14T03:15:45;95516.56;;;6.42;59.81
9521;BME280;4798;41.574;23.734;2023-03-14T03:18:13;95522.16;;;6.78;60.94
9521;BME280;4798;41.574;23.734;2023-03-14T03:20:42;95515.56;;;6.14;59.32
9521;BME280;4798;41.574;23.734;2023-03-14T03:23:10;95525.16;;;5.81;61.09
9521;BME280;4798;41.574;23.734;2023-03-14T03:25:38;95518.22;;;5.86;60.63
9521;BME280;4798;41.574;23.734;2023-03-14T03:28:07;95513.78;;;6.03;59.93
9521;BME280;4798;41.574;23.734;2023-03-14T03:30:38;95497.06;;;6.09;59.92
9521;BME280;4798;41.574;23.734;2023-03-14T03:33:08;95474.56;;;6.02;59.47
9521;BME280;4798;41.574;23.734;2023-03-14T03:35:42;95512.25;;;6.35;61.45
9521;BME280;4798;41.574;23.734;2023-03-14T03:38:11;95470.88;;;5.86;60.23
9521;BME280;4798;41.574;23.734;2023-03-14T03:40:40;95439.09;;;5.76;63.04
9521;BME280;4798;41.574;23.734;2023-03-14T03:43:09;95510.66;;;6.34;60.02
9521;BME280;4798;41.574;23.734;2023-03-14T03:45:37;95508.41;;;6.26;60.27
9521;BME280;4798;41.574;23.734;2023-03-14T03:48:06;95496.28;;;6.25;59.66
9521;BME280;4798;41.574;23.734;2023-03-14T03:50:35;95498.81;;;6.20;60.39
9521;BME280;4798;41.574;23.734;2023-03-14T03:53:04;95503.06;;;6.21;60.17
9521;BME280;4798;41.574;23.734;2023-03-14T03:55:32;95500.44;;;6.21;60.43
9521;BME280;4798;41.574;23.734;2023-03-14T03:58:00;95498.94;;;5.97;60.48
9521;BME280;4798;41.574;23.734;2023-03-14T04:00:29;95500.34;;;6.16;60.82
9521;BME280;4798;41.574;23.734;2023-03-14T04:02:58;95499.63;;;6.21;60.48
9521;BME280;4798;41.574;23.734;2023-03-14T04:05:27;95494.81;;;6.01;60.14
9521;BME280;4798;41.574;23.734;2023-03-14T04:07:57;95479.66;;;5.00;62.22
9521;BME280;4798;41.574;23.734;2023-03-14T04:10:25;95492.78;;;4.66;63.36
9521;BME280;4798;41.574;23.734;2023-03-14T04:12:54;95498.34;;;4.34;64.44
9521;BME280;4798;41.574;23.734;2023-03-14T04:15:22;95501.06;;;3.87;65.67
9521;BME280;4798;41.574;23.734;2023-03-14T04:17:50;95493.06;;;3.81;66.81
9521;BME280;4798;41.574;23.734;2023-03-14T04:20:18;95495.41;;;4.42;64.94
9521;BME280;4798;41.574;23.734;2023-03-14T04:22:47;95494.25;;;4.50;64.44
9521;BME280;4798;41.574;23.734;2023-03-14T04:25:16;95501.72;;;4.23;65.26
9521;BME280;4798;41.574;23.734;2023-03-14T04:27:47;95494.16;;;4.04;66.39
9521;BME280;4798;41.574;23.734;2023-03-14T04:30:18;95509.34;;;4.02;66.74
9521;BME280;4798;41.574;23.734;2023-03-14T04:32:47;95510.53;;;3.40;69.82
9521;BME280;4798;41.574;23.734;2023-03-14T04:35:15;95511.69;;;3.07;72.61
9521;BME280;4798;41.574;23.734;2023-03-14T04:37:44;95499.22;;;2.67;76.29
9521;BME280;4798;41.574;23.734;2023-03-14T04:40:17;95524.53;;;2.73;79.67
9521;BME280;4798;41.574;23.734;2023-03-14T04:42:46;95469.19;;;2.26;81.83
9521;BME280;4798;41.574;23.734;2023-03-14T04:45:14;95527.56;;;2.70;83.75
9521;BME280;4798;41.574;23.734;2023-03-14T04:47:42;95521.03;;;3.03;82.56
9521;BME280;4798;41.574;23.734;2023-03-14T04:50:11;95462.75;;;3.08;78.63
9521;BME280;4798;41.574;23.734;2023-03-14T04:52:39;95524.69;;;3.68;76.36
9521;BME280;4798;41.574;23.734;2023-03-14T04:55:07;95480.84;;;3.28;76.17
9521;BME280;4798;41.574;23.734;2023-03-14T04:57:37;95520.00;;;3.89;74.69
9521;BME280;4798;41.574;23.734;2023-03-14T05:00:07;95513.47;;;4.09;72.89
9521;BME280;4798;41.574;23.734;2023-03-14T05:02:35;95518.91;;;4.08;72.46
9521;BME280;4798;41.574;23.734;2023-03-14T05:05:05;95508.34;;;3.84;73.06
9521;BME280;4798;41.574;23.734;2023-03-14T05:07:33;95524.00;;;3.91;72.79
9521;BME280;4798;41.574;23.734;2023-03-14T05:10:01;95531.16;;;3.84;72.61
9521;BME280;4798;41.574;23.734;2023-03-14T05:12:30;95528.09;;;3.87;73.38
9521;BME280;4798;41.574;23.734;2023-03-14T05:15:00;95500.88;;;4.00;72.78
9521;BME280;4798;41.574;23.734;2023-03-14T05:17:28;95471.13;;;4.06;71.34
9521;BME280;4798;41.574;23.734;2023-03-14T05:19:56;95524.47;;;4.41;71.32
9521;BME280;4798;41.574;23.734;2023-03-14T05:22:25;95523.13;;;4.62;70.76
9521;BME280;4798;41.574;23.734;2023-03-14T05:24:53;95517.06;;;4.49;70.85
9521;BME280;4798;41.574;23.734;2023-03-14T05:27:23;95515.91;;;4.34;71.13
9521;BME280;4798;41.574;23.734;2023-03-14T05:29:52;95510.69;;;4.69;71.66
9521;BME280;4798;41.574;23.734;2023-03-14T05:32:22;95315.78;;;3.57;70.39
9521;BME280;4798;41.574;23.734;2023-03-14T05:34:50;95512.84;;;5.06;70.22
9521;BME280;4798;41.574;23.734;2023-03-14T05:37:18;95515.66;;;5.40;68.43
9521;BME280;4798;41.574;23.734;2023-03-14T05:39:47;95509.47;;;5.57;68.26
9521;BME280;4798;41.574;23.734;2023-03-14T05:42:15;95516.84;;;5.72;67.29
9521;BME280;4798;41.574;23.734;2023-03-14T05:44:43;95512.28;;;5.67;66.33
9521;BME280;4798;41.574;23.734;2023-03-14T05:47:11;95512.66;;;5.59;66.45
9521;BME280;4798;41.574;23.734;2023-03-14T05:49:41;95460.28;;;5.30;66.02
9521;BME280;4798;41.574;23.734;2023-03-14T05:52:09;95509.53;;;5.74;65.47
9521;BME280;4798;41.574;23.734;2023-03-14T05:54:38;95515.06;;;6.01;64.49
9521;BME280;4798;41.574;23.734;2023-03-14T05:57:06;95459.31;;;5.75;63.68
9521;BME280;4798;41.574;23.734;2023-03-14T05:59:35;95516.88;;;6.00;64.30
9521;BME280;4798;41.574;23.734;2023-03-14T06:02:03;95510.81;;;5.60;64.47
9521;BME280;4798;41.574;23.734;2023-03-14T06:04:31;95512.66;;;5.59;62.80
9521;BME280;4798;41.574;23.734;2023-03-14T06:07:01;95501.00;;;5.55;63.32
9521;BME280;4798;41.574;23.734;2023-03-14T06:09:29;95499.56;;;5.76;62.63
9521;BME280;4798;41.574;23.734;2023-03-14T06:11:58;95494.34;;;6.04;61.71
9521;BME280;4798;41.574;23.734;2023-03-14T06:14:26;95498.44;;;5.72;61.80
9521;BME280;4798;41.574;23.734;2023-03-14T06:16:54;95498.59;;;6.22;61.46
9521;BME280;4798;41.574;23.734;2023-03-14T06:19:23;95497.41;;;6.79;58.82
9521;BME280;4798;41.574;23.734;2023-03-14T06:21:51;95494.97;;;7.11;59.29
9521;BME280;4798;41.574;23.734;2023-03-14T06:24:21;95497.16;;;7.36;57.80
9521;BME280;4798;41.574;23.734;2023-03-14T06:26:49;95498.00;;;7.41;57.88
9521;BME280;4798;41.574;23.734;2023-03-14T06:29:18;95479.91;;;7.72;58.07
9521;BME280;4798;41.574;23.734;2023-03-14T06:31:47;95503.47;;;7.56;57.48
9521;BME280;4798;41.574;23.734;2023-03-14T06:34:15;95503.97;;;7.53;57.06
9521;BME280;4798;41.574;23.734;2023-03-14T06:36:43;95501.56;;;7.52;56.26
9521;BME280;4798;41.574;23.734;2023-03-14T06:39:11;95411.38;;;7.28;56.25
9521;BME280;4798;41.574;23.734;2023-03-14T06:41:41;95448.94;;;7.62;56.52
9521;BME280;4798;41.574;23.734;2023-03-14T06:44:09;95478.81;;;7.67;58.23
9521;BME280;4798;41.574;23.734;2023-03-14T06:46:38;95477.53;;;7.70;58.85
9521;BME280;4798;41.574;23.734;2023-03-14T06:49:06;95496.56;;;7.99;59.83
9521;BME280;4798;41.574;23.734;2023-03-14T06:51:34;95465.09;;;7.92;58.92
9521;BME280;4798;41.574;23.734;2023-03-14T06:54:03;95485.81;;;8.27;59.72
9521;BME280;4798;41.574;23.734;2023-03-14T06:56:31;95468.03;;;8.49;59.24
9521;BME280;4798;41.574;23.734;2023-03-14T06:59:01;95476.66;;;9.08;57.58
9521;BME280;4798;41.574;23.734;2023-03-14T07:01:30;95474.94;;;8.55;57.24
9521;BME280;4798;41.574;23.734;2023-03-14T07:03:59;95469.75;;;9.64;56.06
9521;BME280;4798;41.574;23.734;2023-03-14T07:06:28;95437.31;;;9.99;54.80
9521;BME280;4798;41.574;23.734;2023-03-14T07:08:57;95380.81;;;8.86;55.19
9521;BME280;4798;41.574;23.734;2023-03-14T07:11:26;95468.78;;;9.85;56.46
9521;BME280;4798;41.574;23.734;2023-03-14T07:13:54;95382.56;;;8.28;55.87
9521;BME280;4798;41.574;23.734;2023-03-14T07:16:24;95277.75;;;7.60;55.84
9521;BME280;4798;41.574;23.734;2023-03-14T07:18:55;95458.31;;;10.36;54.04
9521;BME280;4798;41.574;23.734;2023-03-14T07:21:23;95459.13;;;10.56;52.17
9521;BME280;4798;41.574;23.734;2023-03-14T07:23:52;95455.44;;;11.62;50.63
9521;BME280;4798;41.574;23.734;2023-03-14T07:26:20;95463.56;;;11.16;50.01
9521;BME280;4798;41.574;23.734;2023-03-14T07:28:50;95455.91;;;11.89;49.68
9521;BME280;4798;41.574;23.734;2023-03-14T07:31:18;95446.84;;;12.34;47.96
9521;BME280;4798;41.574;23.734;2023-03-14T07:33:48;95441.88;;;12.90;46.10
9521;BME280;4798;41.574;23.734;2023-03-14T07:36:16;95434.09;;;13.27;45.14
9521;BME280;4798;41.574;23.734;2023-03-14T07:38:45;95438.63;;;12.98;45.92
9521;BME280;4798;41.574;23.734;2023-03-14T07:41:13;95384.97;;;12.62;45.44
9521;BME280;4798;41.574;23.734;2023-03-14T07:43:42;95431.00;;;13.62;44.39
9521;BME280;4798;41.574;23.734;2023-03-14T07:46:10;95425.69;;;14.42;43.52
9521;BME280;4798;41.574;23.734;2023-03-14T07:48:39;95380.28;;;15.06;43.98
9521;BME280;4798;41.574;23.734;2023-03-14T07:51:08;95413.16;;;15.75;39.68
9521;BME280;4798;41.574;23.734;2023-03-14T07:53:37;95415.69;;;15.25;41.39
9521;BME280;4798;41.574;23.734;2023-03-14T07:56:06;95393.19;;;15.59;40.35
9521;BME280;4798;41.574;23.734;2023-03-14T07:58:35;95405.13;;;15.75;38.53
9521;BME280;4798;41.574;23.734;2023-03-14T08:01:03;95404.31;;;16.60;37.55
9521;BME280;4798;41.574;23.734;2023-03-14T08:03:32;95394.72;;;16.59;38.49
9521;BME280;4798;41.574;23.734;2023-03-14T08:06:00;95389.09;;;16.46;37.22
9521;BME280;4798;41.574;23.734;2023-03-14T08:08:30;95386.13;;;16.26;36.84
9521;BME280;4798;41.574;23.734;2023-03-14T08:11:02;95382.78;;;17.26;35.44
9521;BME280;4798;41.574;23.734;2023-03-14T08:13:31;95384.75;;;15.38;38.59
9521;BME280;4798;41.574;23.734;2023-03-14T08:15:59;95385.75;;;16.19;37.24
9521;BME280;4798;41.574;23.734;2023-03-14T08:18:27;95378.50;;;16.19;36.97
9521;BME280;4798;41.574;23.734;2023-03-14T08:20:56;95375.66;;;16.16;37.22
9521;BME280;4798;41.574;23.734;2023-03-14T08:23:24;95335.41;;;15.63;37.08
9521;BME280;4798;41.574;23.734;2023-03-14T08:25:54;95347.16;;;15.62;37.57
9521;BME280;4798;41.574;23.734;2023-03-14T08:28:22;95372.41;;;16.05;36.99
9521;BME280;4798;41.574;23.734;2023-03-14T08:30:54;95375.88;;;16.06;38.92
9521;BME280;4798;41.574;23.734;2023-03-14T08:33:23;95366.47;;;18.10;36.16
9521;BME280;4798;41.574;23.734;2023-03-14T08:35:52;95352.47;;;17.00;35.98
9521;BME280;4798;41.574;23.734;2023-03-14T08:38:21;95356.38;;;16.49;37.62
9521;BME280;4798;41.574;23.734;2023-03-14T08:40:56;95352.34;;;17.53;35.66
9521;BME280;4798;41.574;23.734;2023-03-14T08:43:25;95333.81;;;17.91;34.79
9521;BME280;4798;41.574;23.734;2023-03-14T08:45:57;95332.66;;;19.15;33.90
9521;BME280;4798;41.574;23.734;2023-03-14T08:48:26;95302.09;;;17.84;34.01
9521;BME280;4798;41.574;23.734;2023-03-14T08:50:56;95342.16;;;18.66;33.21
9521;BME280;4798;41.574;23.734;2023-03-14T08:53:24;95332.84;;;18.04;33.33
9521;BME280;4798;41.574;23.734;2023-03-14T08:55:53;95322.31;;;19.43;33.25
9521;BME280;4798;41.574;23.734;2023-03-14T08:58:23;95307.63;;;19.61;32.21
9521;BME280;4798;41.574;23.734;2023-03-14T09:00:51;95314.56;;;19.33;32.49
9521;BME280;4798;41.574;23.734;2023-03-14T09:03:19;95312.03;;;19.45;32.78
9521;BME280;4798;41.574;23.734;2023-03-14T09:05:49;95306.13;;;19.14;30.67
9521;BME280;4798;41.574;23.734;2023-03-14T09:08:18;95304.47;;;18.28;33.29
9521;BME280;4798;41.574;23.734;2023-03-14T09:10:46;95298.81;;;19.60;32.22
9521;BME280;4798;41.574;23.734;2023-03-14T09:13:14;95304.06;;;19.48;32.67
9521;BME280;4798;41.574;23.734;2023-03-14T09:15:44;95292.56;;;20.10;33.07
9521;BME280;4798;41.574;23.734;2023-03-14T09:18:12;95300.91;;;20.82;32.54
9521;BME280;4798;41.574;23.734;2023-03-14T09:20:41;95248.25;;;20.61;30.89
9521;BME280;4798;41.574;23.734;2023-03-14T09:23:09;95282.75;;;22.28;30.74
9521;BME280;4798;41.574;23.734;2023-03-14T09:25:38;95280.41;;;21.50;29.62
9521;BME280;4798;41.574;23.734;2023-03-14T09:28:06;95240.84;;;20.70;29.19
9521;BME280;4798;41.574;23.734;2023-03-14T09:30:34;95232.22;;;20.64;29.56
9521;BME280;4798;41.574;23.734;2023-03-14T09:33:04;95233.44;;;23.37;27.43
9521;BME280;4798;41.574;23.734;2023-03-14T09:35:33;95265.53;;;23.38;26.48
9521;BME280;4798;41.574;23.734;2023-03-14T09:38:02;95259.09;;;21.33;28.02
9521;BME280;4798;41.574;23.734;2023-03-14T09:40:32;95258.88;;;21.38;28.46
9521;BME280;4798;41.574;23.734;2023-03-14T09:43:02;95228.88;;;21.92;28.29
9521;BME280;4798;41.574;23.734;2023-03-14T09:45:33;95246.44;;;22.85;28.40
9521;BME280;4798;41.574;23.734;2023-03-14T09:48:05;95248.75;;;20.87;29.66
9521;BME280;4798;41.574;23.734;2023-03-14T09:50:39;95245.78;;;20.80;29.59
9521;BME280;4798;41.574;23.734;2023-03-14T09:53:12;95234.56;;;20.90;29.58
9521;BME280;4798;41.574;23.734;2023-03-14T09:55:42;95237.06;;;21.43;28.30
9521;BME280;4798;41.574;23.734;2023-03-14T09:58:12;95222.16;;;21.86;28.33
9521;BME280;4798;41.574;23.734;2023-03-14T10:00:41;95214.72;;;22.82;27.31
9521;BME280;4798;41.574;23.734;2023-03-14T10:03:23;95212.97;;;22.73;26.74
9521;BME280;4798;41.574;23.734;2023-03-14T10:05:54;95200.44;;;23.47;27.56
9521;BME280;4798;41.574;23.734;2023-03-14T10:08:24;95188.97;;;24.08;26.34
9521;BME280;4798;41.574;23.734;2023-03-14T10:10:53;95182.38;;;26.04;24.24
9521;BME280;4798;41.574;23.734;2023-03-14T10:13:22;95188.75;;;25.56;23.61
9521;BME280;4798;41.574;23.734;2023-03-14T10:15:54;95166.63;;;25.83;24.64
9521;BME280;4798;41.574;23.734;2023-03-14T10:18:24;95162.00;;;24.15;25.05
9521;BME280;4798;41.574;23.734;2023-03-14T10:21:03;95163.81;;;23.88;26.34
9521;BME280;4798;41.574;23.734;2023-03-14T10:23:33;95163.34;;;26.01;24.61
9521;BME280;4798;41.574;23.734;2023-03-14T10:26:07;95150.63;;;26.85;23.73
9521;BME280;4798;41.574;23.734;2023-03-14T10:28:39;95140.69;;;27.68;22.38
9521;BME280;4798;41.574;23.734;2023-03-14T10:31:08;95135.53;;;27.49;22.27
9521;BME280;4798;41.574;23.734;2023-03-14T10:33:38;95121.00;;;28.07;22.51
9521;BME280;4798;41.574;23.734;2023-03-14T10:36:16;95120.81;;;27.57;23.09
9521;BME280;4798;41.574;23.734;2023-03-14T10:38:45;95119.69;;;27.04;25.17
9521;BME280;4798;41.574;23.734;2023-03-14T10:41:19;95109.84;;;27.50;23.92
9521;BME280;4798;41.574;23.734;2023-03-14T10:43:53;95098.63;;;26.94;23.63
9521;BME280;4798;41.574;23.734;2023-03-14T10:46:24;95097.75;;;25.36;24.50
9521;BME280;4798;41.574;23.734;2023-03-14T10:48:54;95086.88;;;24.57;24.96
9521;BME280;4798;41.574;23.734;2023-03-14T10:51:25;95089.72;;;23.38;25.98
9521;BME280;4798;41.574;23.734;2023-03-14T10:53:57;95077.81;;;23.81;26.32
9521;BME280;4798;41.574;23.734;2023-03-14T10:56:26;95063.66;;;24.79;24.71
9521;BME280;4798;41.574;23.734;2023-03-14T10:58:57;95065.31;;;26.13;25.37
9521;BME280;4798;41.574;23.734;2023-03-14T11:01:37;95063.16;;;23.25;26.17
9521;BME280;4798;41.574;23.734;2023-03-14T11:04:17;95052.22;;;23.98;26.82
9521;BME280;4798;41.574;23.734;2023-03-14T11:06:53;95045.03;;;24.28;26.51
9521;BME280;4798;41.574;23.734;2023-03-14T11:09:28;95035.97;;;23.98;26.33
9521;BME280;4798;41.574;23.734;2023-03-14T11:12:03;95029.56;;;25.41;25.67
9521;BME280;4798;41.574;23.734;2023-03-14T11:14:43;95022.84;;;26.41;25.02
9521;BME280;4798;41.574;23.734;2023-03-14T11:17:20;95008.69;;;24.82;25.32
9521;BME280;4798;41.574;23.734;2023-03-14T11:20:15;94995.19;;;26.76;25.45
9521;BME280;4798;41.574;23.734;2023-03-14T11:22:53;95003.34;;;24.36;25.57
9521;BME280;4798;41.574;23.734;2023-03-14T11:25:29;94990.94;;;24.88;25.60
9521;BME280;4798;41.574;23.734;2023-03-14T11:28:08;94980.16;;;23.90;26.50
9521;BME280;4798;41.574;23.734;2023-03-14T11:30:42;94976.59;;;25.87;25.67
9521;BME280;4798;41.574;23.734;2023-03-14T11:33:18;94971.09;;;25.10;25.84
9521;BME280;4798;41.574;23.734;2023-03-14T11:35:55;94960.66;;;25.45;25.30
9521;BME280;4798;41.574;23.734;2023-03-14T11:38:32;94956.00;;;24.79;26.06
9521;BME280;4798;41.574;23.734;2023-03-14T11:41:02;94951.63;;;24.75;25.78
9521;BME280;4798;41.574;23.734;2023-03-14T11:43:34;94944.47;;;26.47;25.57
9521;BME280;4798;41.574;23.734;2023-03-14T11:46:10;94933.91;;;27.03;24.70
9521;BME280;4798;41.574;23.734;2023-03-14T11:48:46;94931.00;;;28.67;23.63
9521;BME280;4798;41.574;23.734;2023-03-14T11:51:23;94921.28;;;27.75;23.53
9521;BME280;4798;41.574;23.734;2023-03-14T11:54:00;94908.81;;;28.44;23.34
9521;BME280;4798;41.574;23.734;2023-03-14T11:56:33;94847.75;;;27.75;23.63
9521;BME280;4798;41.574;23.734;2023-03-14T11:59:07;94862.91;;;28.25;23.69
9521;BME280;4798;41.574;23.734;2023-03-14T12:01:52;94889.38;;;27.57;24.37
9521;BME280;4798;41.574;23.734;2023-03-14T12:04:34;94877.97;;;27.06;24.71
9521;BME280;4798;41.574;23.734;2023-03-14T12:07:18;94871.19;;;26.72;24.96
9521;BME280;4798;41.574;23.734;2023-03-14T12:09:49;94814.00;;;26.47;25.65
9521;BME280;4798;41.574;23.734;2023-03-14T12:12:21;94853.84;;;26.97;24.39
9521;BME280;4798;41.574;23.734;2023-03-14T12:14:55;94847.28;;;27.16;24.03
9521;BME280;4798;41.574;23.734;2023-03-14T12:17:26;94836.84;;;27.39;24.06
9521;BME280;4798;41.574;23.734;2023-03-14T12:20:04;94843.44;;;28.23;22.65
9521;BME280;4798;41.574;23.734;2023-03-14T12:22:42;94839.19;;;28.15;22.52
9521;BME280;4798;41.574;23.734;2023-03-14T12:25:16;94831.69;;;28.61;23.44
9521;BME280;4798;41.574;23.734;2023-03-14T12:28:17;94825.88;;;29.28;22.45
9521;BME280;4798;41.574;23.734;2023-03-14T12:30:46;94829.41;;;28.39;22.25
9521;BME280;4798;41.574;23.734;2023-03-14T12:33:33;94815.03;;;29.14;22.38
9521;BME280;4798;41.574;23.734;2023-03-14T12:36:39;94810.75;;;29.10;22.03
9521;BME280;4798;41.574;23.734;2023-03-14T12:39:31;94808.81;;;27.14;23.17
9521;BME280;4798;41.574;23.734;2023-03-14T12:42:05;94795.22;;;27.14;24.33
9521;BME280;4798;41.574;23.734;2023-03-14T12:44:43;94791.91;;;26.48;23.64
9521;BME280;4798;41.574;23.734;2023-03-14T12:47:45;94775.41;;;27.63;23.90
9521;BME280;4798;41.574;23.734;2023-03-14T12:50:23;94776.03;;;26.61;23.77
9521;BME280;4798;41.574;23.734;2023-03-14T12:55:48;94766.81;;;27.26;23.20
9521;BME280;4798;41.574;23.734;2023-03-14T12:58:22;94767.28;;;25.52;23.93
9521;BME280;4798;41.574;23.734;2023-03-14T13:00:59;94759.38;;;25.87;24.82
9521;BME280;4798;41.574;23.734;2023-03-14T13:03:38;94750.88;;;25.92;24.64
9521;BME280;4798;41.574;23.734;2023-03-14T13:06:10;94731.53;;;26.04;23.42
9521;BME280;4798;41.574;23.734;2023-03-14T13:08:40;94734.03;;;26.52;23.70
9521;BME280;4798;41.574;23.734;2023-03-14T13:11:12;94740.69;;;26.65;24.14
9521;BME280;4798;41.574;23.734;2023-03-14T13:13:45;94739.22;;;27.13;24.23
9521;BME280;4798;41.574;23.734;2023-03-14T13:16:17;94732.56;;;28.02;23.49
9521;BME280;4798;41.574;23.734;2023-03-14T13:18:47;94727.59;;;27.41;23.73
9521;BME280;4798;41.574;23.734;2023-03-14T13:21:17;94716.69;;;27.51;23.74
9521;BME280;4798;41.574;23.734;2023-03-14T13:23:58;94717.19;;;28.47;22.45
9521;BME280;4798;41.574;23.734;2023-03-14T13:26:34;94709.31;;;27.41;23.44
9521;BME280;4798;41.574;23.734;2023-03-14T13:29:15;94713.91;;;25.70;23.28
9521;BME280;4798;41.574;23.734;2023-03-14T13:31:44;94688.03;;;25.90;25.26
9521;BME280;4798;41.574;23.734;2023-03-14T13:34:14;94698.91;;;25.36;24.59
9521;BME280;4798;41.574;23.734;2023-03-14T13:36:42;94702.06;;;24.17;26.43
9521;BME280;4798;41.574;23.734;2023-03-14T13:39:13;94692.69;;;24.81;25.48